KFLO/FLO METAR and TAF weather

Enter ICAO airport designator
Station Type Date Time Source
KFLO METAR 2021/06/25 02:53 UTC NOAA

KFLO 250253Z AUTO 03006KT 10SM CLR 21/11 A3024 RMK AO2 SLP235 T02060111 50001


Station Type Date Time Source
KFLO Decoded METAR 2021/06/25 02:53 UTC NOAA

FLORENCE REGIONAL AIRPORT, SC, United States (KFLO) 34-11N 079-44W 44M
Jun 24, 2021 - 10:53 PM EDT / 2021.06.25 0253 UTC
Wind: from the NNE (030 degrees) at 7 MPH (6 KT):0
Visibility: 10 mile(s):0
Sky conditions: clear
Temperature: 69.1 F (20.6 C)
Dew Point: 52.0 F (11.1 C)
Relative Humidity: 54%
Pressure (altimeter): 30.24 in. Hg (1024 hPa)
Pressure tendency: 0.00 inches (0.1 hPa) higher than three hours ago
ob: KFLO 250253Z AUTO 03006KT 10SM CLR 21/11 A3024 RMK AO2 SLP235 T02060111 50001
cycle: 3

Station Type Date Time Source
KFLO TAF 2021/06/24 18:22 UTC NOAA

TAF KFLO 241720Z 2418/2518 05009KT P6SM SKC
FM250600 05004KT P6SM SCT050
FM251000 07007KT P6SM BKN010

Example: see airport list